DAAGDAOO

Guest
Details From DAAG - Alger Houari Boumediene
To DAOO - ES SENIA
Flight Number -
Tags generated
Created
Modified
Stats Distance 197 nm / 366 km
Max Altitude 24,100 ft / 7,346 m
Waypoints 4
Social Downloads 5
Likes 0
Share VATSIM

Download

Looking for another format? Having issues loading an existing format? Contact us
Advertisement - Login to hide

Notes

Basic altitude profile: - Ascent Rate: 1500ft/min - Ascent Speed: 140kts - Cruise Altitude: 18000ft - Cruise Speed: 280kts - Descent Rate: 1500ft/min - Descent Speed: 200kts Options: - Use NATs: yes - Use PACOTS: yes - Use low airways: yes - Use high airways: yes

Route

DAAG DAHRA A411 MOS DAOO

ID Type Via Altitude Latitude Longitude Leg Dist Tot Dist Heading (true) Name
O DAAG APT - 0 ft / 0 m 36.69752˚ 3.21308˚ - 0 nm - Alger Houari Boumediene
DAHRA FIX - 24,100 ft / 7,346 m 36.38333˚ 1.50000˚ 84 nm 84 nm 258° / 257° -
MOS VOR A411 (AWY-LO) 8,600 ft / 2,621 m 35.89861˚ 0.13639˚ 72 nm 157 nm 247° / 246° MOSTAGANEM VOR-DME
O DAOO APT - 0 ft / 0 m 35.62386˚ -0.62118˚ 40 nm 197 nm 246° / 246° ES SENIA

Altitude Profile

Advertisement - Login to hide

Weather


0- 5 10 15 20 25 30 35+ Temperature / ° C

Clouds and Precipitation
Forecast for 2017-12-16 12:00 UTC. Updated 2 hours ago

Ground ~20,000 ft ~40,000 ft Winds

DAAG

Details ICAO DAAG (ALG)
Name Alger Houari Boumediene
Region Algeria
Timezone Africa/Algiers (UTC+1.0)
Stats Elevation 82 ft / 25 m (AMSL)
Location 36.697521° 3.213079°
Runways 2
Magnetic Variation 1.058° E

METAR

DAAG 161100Z 24006KT 200V270 9999 SCT023 FEW026TCU 15/11 Q1017

Decode

TAF

TAF DAAG 160500Z 1606/1706 22010KT 9999 SCT013 FEW023TCU TEMPO 1606/1612 5000 -RA FEW023CB BECMG 1611/1614 34010KT PROB40 TEMPO 1617/1624 5000 -RA FEW023CB

Decode

Departure Runways

ID Width Length Bearing (true) Bearing (mag) Surface Threshold Offset Overrun Length
05 197 ft / 60 m 11,459 ft / 3,493 m 52.87° 51.81° Asphalt 0 ft / 0 m 0 ft / 0 m
09 148 ft / 45 m 11,442 ft / 3,487 m 91.75° 90.69° Asphalt 0 ft / 0 m 1,017 ft / 310 m
23 197 ft / 60 m 11,459 ft / 3,493 m 232.89° 231.83° Asphalt 0 ft / 0 m 0 ft / 0 m
27 148 ft / 45 m 11,442 ft / 3,487 m 271.78° 270.72° Asphalt 0 ft / 0 m 0 ft / 0 m

DAOO

Details ICAO DAOO (ORN)
Name ES SENIA
Region Algeria
Timezone Africa/Algiers (UTC+1.0)
Stats Elevation 295 ft / 90 m (AMSL)
Location 35.623858° -0.621183°
Runways 1
Magnetic Variation 0.152° E

METAR

DAOO 161100Z 00000KT 9000 FEW013 BKN026 11/10 Q1018

Decode

TAF

TAF DAOO 160500Z 1606/1706 34012KT 8000 -RA FEW013 BKN026 TEMPO 1606/1612 5000 SHRA BKN020 PROB40 TEMPO 1606/1609 -TSRA FEW026CB BECMG 1613/1616 03012KT 9999 FEW023 SCT026

Decode

Destination Runways

ID Width Length Bearing (true) Bearing (mag) Surface Threshold Offset Overrun Length
07 148 ft / 45 m 10,006 ft / 3,050 m 67.06° 66.91° Asphalt 0 ft / 0 m 328 ft / 100 m
25 148 ft / 45 m 10,006 ft / 3,050 m 247.08° 246.93° Asphalt 196 ft / 60 m 0 ft / 0 m

Popular Alternatives